createdAt,value
2022-07-29T00:02:02.750Z,99.09
2022-07-29T00:05:19.681Z,99.04
2022-07-29T00:08:35.983Z,99.30
2022-07-29T00:11:52.541Z,100.00
2022-07-29T00:15:08.997Z,100.00
2022-07-29T00:18:25.122Z,100.00
2022-07-29T00:21:41.257Z,100.00
2022-07-29T00:24:57.752Z,100.00
2022-07-29T00:28:14.270Z,100.00
2022-07-29T00:31:30.338Z,100.00
2022-07-29T00:35:00.889Z,100.00
2022-07-29T00:38:17.127Z,100.00
2022-07-29T00:41:33.222Z,100.00
2022-07-29T00:44:51.250Z,100.00
2022-07-29T00:48:08.309Z,100.00
2022-07-29T00:51:24.799Z,100.00
2022-07-29T00:54:46.592Z,100.00
2022-07-29T00:58:03.785Z,100.00
2022-07-29T01:01:22.733Z,99.33
2022-07-29T01:04:37.398Z,99.75
2022-07-29T01:07:54.603Z,99.43
2022-07-29T01:11:11.258Z,100.00
2022-07-29T01:14:29.773Z,100.00
2022-07-29T01:17:53.535Z,100.00
2022-07-29T01:21:44.590Z,100.00
2022-07-29T01:25:30.014Z,100.00
2022-07-29T01:29:10.144Z,100.00
2022-07-29T01:32:33.010Z,100.00
2022-07-29T01:35:51.708Z,100.00
2022-07-29T01:39:15.561Z,99.87
2022-07-29T01:42:36.309Z,100.00
2022-07-29T01:45:57.992Z,100.00
2022-07-29T01:49:20.229Z,99.13
2022-07-29T01:52:41.324Z,99.00
2022-07-29T01:55:59.132Z,98.66
2022-07-29T01:59:17.193Z,98.71
2022-07-29T02:02:35.151Z,98.35
2022-07-29T02:05:54.585Z,98.46
2022-07-29T02:09:11.461Z,98.66
2022-07-29T02:12:29.612Z,98.64
2022-07-29T02:15:47.949Z,98.26
2022-07-29T02:19:07.193Z,98.57
2022-07-29T02:22:21.673Z,98.61
2022-07-29T02:25:38.546Z,97.60
2022-07-29T02:28:56.435Z,97.50
2022-07-29T02:32:16.128Z,96.93
2022-07-29T02:35:34.823Z,97.02
2022-07-29T02:39:01.459Z,97.75
2022-07-29T02:42:21.857Z,97.48
2022-07-29T02:45:38.385Z,97.29
2022-07-29T02:48:58.614Z,97.80
2022-07-29T02:52:19.710Z,97.42
2022-07-29T02:55:40.479Z,98.25
2022-07-29T02:59:02.438Z,98.43
2022-07-29T03:02:20.430Z,98.87
2022-07-29T03:05:38.049Z,99.29
2022-07-29T03:08:56.142Z,99.67
2022-07-29T03:12:16.856Z,99.65
2022-07-29T03:15:34.379Z,99.79
2022-07-29T03:18:50.621Z,99.75
2022-07-29T03:22:08.429Z,100.00
2022-07-29T03:25:26.700Z,100.00
2022-07-29T03:28:42.868Z,99.90
2022-07-29T03:31:59.545Z,100.00
2022-07-29T03:35:18.258Z,100.00
2022-07-29T03:38:37.493Z,100.00
2022-07-29T03:41:58.323Z,100.00
2022-07-29T03:45:19.434Z,100.00
2022-07-29T03:48:37.483Z,100.00
2022-07-29T03:51:54.235Z,100.00
2022-07-29T03:55:12.212Z,100.00
2022-07-29T03:58:30.770Z,100.00
2022-07-29T04:01:50.146Z,100.00
2022-07-29T04:05:06.370Z,100.00
2022-07-29T04:08:22.406Z,100.00
2022-07-29T04:12:02.639Z,100.00
2022-07-29T04:14:56.804Z,100.00
2022-07-29T04:18:13.168Z,100.00
2022-07-29T04:21:29.255Z,100.00
2022-07-29T04:24:45.831Z,100.00
2022-07-29T04:28:07.681Z,100.00
2022-07-29T04:31:26.044Z,100.00
2022-07-29T04:34:43.156Z,100.00
2022-07-29T04:37:59.225Z,100.00
2022-07-29T04:41:15.910Z,100.00
2022-07-29T04:44:33.730Z,99.25
2022-07-29T04:47:51.625Z,99.62
2022-07-29T04:51:08.058Z,99.20
2022-07-29T04:54:24.050Z,99.15
2022-07-29T04:57:42.133Z,98.76
2022-07-29T05:00:58.435Z,98.88
2022-07-29T05:04:15.096Z,97.55
2022-07-29T05:07:31.367Z,97.74
2022-07-29T05:10:47.567Z,97.58
2022-07-29T05:14:03.542Z,95.43
2022-07-29T05:17:19.649Z,95.63
2022-07-29T05:20:37.410Z,95.79
2022-07-29T05:23:53.357Z,96.05
2022-07-29T05:27:09.596Z,93.84
2022-07-29T05:30:25.885Z,93.48
2022-07-29T05:33:42.086Z,92.93
2022-07-29T05:36:58.668Z,92.42
2022-07-29T05:40:17.012Z,92.19
2022-07-29T05:43:33.612Z,91.43
2022-07-29T05:46:49.881Z,90.58
2022-07-29T05:50:06.084Z,91.92
2022-07-29T05:53:22.723Z,89.68
2022-07-29T05:56:39.176Z,87.79
2022-07-29T05:59:55.856Z,86.87
2022-07-29T06:03:11.947Z,87.23
2022-07-29T06:06:28.184Z,86.49
2022-07-29T06:09:44.378Z,87.03
2022-07-29T06:13:00.629Z,85.00
2022-07-29T06:16:17.005Z,85.30
2022-07-29T06:19:35.326Z,84.69
2022-07-29T06:22:51.351Z,84.08
2022-07-29T06:26:08.776Z,85.04
2022-07-29T06:29:24.917Z,84.52
2022-07-29T06:32:43.175Z,84.42
2022-07-29T06:35:59.371Z,83.15
2022-07-29T06:39:19.263Z,83.00
2022-07-29T06:42:35.325Z,82.48
2022-07-29T06:45:53.211Z,82.45
2022-07-29T06:49:09.756Z,82.59
2022-07-29T06:52:27.987Z,81.59
2022-07-29T06:55:44.046Z,82.31
2022-07-29T06:59:00.351Z,81.45
2022-07-29T07:02:18.201Z,83.14
2022-07-29T07:05:34.589Z,80.89
2022-07-29T07:08:50.595Z,81.40
2022-07-29T07:12:07.262Z,80.77
2022-07-29T07:15:39.487Z,80.65
2022-07-29T07:18:42.370Z,79.46
2022-07-29T07:22:02.069Z,81.89
2022-07-29T07:25:21.070Z,81.74
2022-07-29T07:28:37.422Z,79.66
2022-07-29T07:31:56.339Z,78.60
2022-07-29T07:35:13.453Z,79.41
2022-07-29T07:38:29.850Z,78.72
2022-07-29T07:41:45.926Z,78.03
2022-07-29T07:45:13.571Z,77.49
2022-07-29T07:48:20.276Z,76.77
2022-07-29T07:51:36.499Z,76.96
2022-07-29T07:54:53.169Z,76.40
2022-07-29T07:58:09.235Z,74.66
2022-07-29T08:01:25.682Z,74.08
2022-07-29T08:04:42.678Z,72.97
2022-07-29T08:07:58.926Z,73.52
2022-07-29T08:11:15.075Z,69.57
2022-07-29T08:14:31.785Z,70.28
2022-07-29T08:17:47.991Z,69.04
2022-07-29T08:21:05.063Z,67.39
2022-07-29T08:24:43.323Z,67.31
2022-07-29T08:27:59.850Z,66.26
2022-07-29T08:31:16.602Z,66.57
2022-07-29T08:34:32.708Z,65.16
2022-07-29T08:37:49.328Z,65.41
2022-07-29T08:41:07.867Z,65.22
2022-07-29T08:44:30.591Z,65.22
2022-07-29T08:47:44.432Z,63.22
2022-07-29T08:51:04.410Z,64.18
2022-07-29T08:54:25.131Z,64.83
2022-07-29T08:57:54.241Z,61.14
2022-07-29T09:01:02.478Z,64.43
2022-07-29T09:04:22.872Z,62.36
2022-07-29T09:07:44.890Z,59.72
2022-07-29T09:11:03.824Z,59.15
2022-07-29T09:14:22.177Z,57.75
2022-07-29T09:17:59.069Z,57.78
2022-07-29T09:21:34.634Z,58.96
2022-07-29T09:24:57.285Z,58.87
2022-07-29T09:28:29.024Z,58.93
2022-07-29T09:31:55.313Z,58.25
2022-07-29T09:35:56.521Z,58.92
2022-07-29T09:39:17.739Z,57.94
2022-07-29T09:42:42.093Z,58.96
2022-07-29T09:45:58.951Z,59.04
2022-07-29T09:49:20.594Z,56.72
2022-07-29T09:52:37.784Z,59.93
2022-07-29T09:56:01.146Z,58.00
2022-07-29T09:59:18.666Z,58.54
2022-07-29T10:02:45.256Z,57.72
2022-07-29T10:06:17.764Z,58.65
2022-07-29T10:09:35.682Z,57.71
2022-07-29T10:13:07.103Z,58.83
2022-07-29T10:16:26.204Z,59.33
2022-07-29T10:19:44.259Z,58.21
2022-07-29T10:23:01.753Z,58.31
2022-07-29T10:26:19.020Z,58.13
2022-07-29T10:29:38.495Z,56.74
2022-07-29T10:33:22.222Z,57.73
2022-07-29T10:36:55.546Z,57.76
2022-07-29T10:40:27.109Z,57.39
2022-07-29T10:43:51.431Z,57.12
2022-07-29T10:47:08.397Z,57.59
2022-07-29T10:50:26.664Z,57.28
2022-07-29T10:54:02.660Z,57.65
2022-07-29T10:57:53.692Z,58.24
2022-07-29T11:01:03.975Z,58.54
2022-07-29T11:04:20.922Z,57.80
2022-07-29T11:07:46.012Z,58.09
2022-07-29T11:11:00.594Z,58.54
2022-07-29T11:14:19.358Z,57.99
2022-07-29T11:17:52.105Z,58.76
2022-07-29T11:21:02.233Z,59.53
2022-07-29T11:24:32.818Z,60.89
2022-07-29T11:27:55.121Z,59.99
2022-07-29T11:31:27.857Z,58.42
2022-07-29T11:34:45.503Z,59.54
2022-07-29T11:38:38.384Z,59.92
2022-07-29T11:42:00.510Z,60.10
2022-07-29T11:45:43.740Z,59.42
2022-07-29T11:48:40.493Z,58.77
2022-07-29T11:52:07.007Z,60.15
2022-07-29T11:55:32.309Z,59.54
2022-07-29T11:58:48.327Z,59.51
2022-07-29T12:02:36.373Z,59.18
2022-07-29T12:05:37.001Z,59.34
2022-07-29T12:08:50.437Z,60.13
2022-07-29T12:12:10.074Z,59.63
2022-07-29T12:15:46.030Z,59.36
2022-07-29T12:18:59.442Z,60.77
2022-07-29T12:22:16.021Z,60.87
2022-07-29T12:25:34.060Z,61.84
2022-07-29T12:28:54.796Z,61.62
2022-07-29T12:32:14.597Z,61.25
2022-07-29T12:35:45.771Z,60.04
2022-07-29T12:39:04.041Z,61.29
2022-07-29T12:42:27.069Z,59.92
2022-07-29T12:45:44.741Z,59.84
2022-07-29T12:49:04.109Z,59.48
2022-07-29T12:52:38.925Z,60.15
2022-07-29T12:55:58.299Z,62.08
2022-07-29T12:59:29.432Z,60.96
2022-07-29T13:02:49.501Z,62.29
2022-07-29T13:06:25.127Z,60.35
2022-07-29T13:09:50.661Z,59.80
2022-07-29T13:13:19.070Z,59.84
2022-07-29T13:16:38.486Z,59.85
2022-07-29T13:19:59.831Z,60.41
2022-07-29T13:23:22.141Z,59.30
2022-07-29T13:26:44.291Z,60.60
2022-07-29T13:30:02.533Z,60.12
2022-07-29T13:33:18.725Z,60.64
2022-07-29T13:36:38.709Z,59.99
2022-07-29T13:39:56.861Z,60.49
2022-07-29T13:43:16.216Z,59.17
2022-07-29T13:46:39.464Z,58.63
2022-07-29T13:49:58.624Z,59.08
2022-07-29T13:56:29.082Z,59.17
2022-07-29T13:59:54.305Z,59.38
2022-07-29T14:03:17.253Z,59.49
2022-07-29T14:25:15.127Z,57.69
2022-07-29T14:28:32.049Z,57.78
2022-07-29T14:31:51.252Z,58.58
2022-07-29T14:35:08.224Z,59.13
2022-07-29T14:38:27.309Z,58.62
2022-07-29T14:41:59.074Z,59.09
2022-07-29T14:48:16.650Z,59.85
2022-07-29T14:51:38.953Z,60.02
2022-07-29T14:55:19.851Z,59.83
2022-07-29T14:58:51.529Z,60.09
2022-07-29T15:05:41.355Z,60.83
2022-07-29T15:08:57.873Z,60.69
2022-07-29T15:12:20.517Z,61.34
2022-07-29T15:15:37.020Z,60.73
2022-07-29T15:18:54.116Z,61.41
2022-07-29T15:22:10.985Z,61.21
2022-07-29T15:25:28.146Z,62.00
2022-07-29T15:28:44.700Z,61.81
2022-07-29T15:32:02.493Z,62.03
2022-07-29T15:35:20.898Z,62.41
2022-07-29T15:38:41.760Z,62.57
2022-07-29T15:41:57.228Z,62.86
2022-07-29T15:45:15.896Z,63.29
2022-07-29T15:48:34.617Z,63.39
2022-07-29T15:51:51.469Z,63.79
2022-07-29T15:55:07.944Z,63.49
2022-07-29T15:58:24.234Z,64.07
2022-07-29T16:01:43.484Z,63.92
2022-07-29T16:04:59.789Z,64.25
2022-07-29T16:08:18.063Z,64.15
2022-07-29T16:11:34.352Z,64.46
2022-07-29T16:14:51.972Z,64.79
2022-07-29T16:18:09.722Z,70.33
2022-07-29T16:21:28.227Z,69.37
2022-07-29T16:24:42.997Z,71.01
2022-07-29T16:27:59.989Z,74.91
2022-07-29T16:31:16.932Z,81.68
2022-07-29T16:34:33.231Z,86.47
2022-07-29T16:38:23.488Z,91.36
2022-07-29T16:42:08.214Z,95.21
2022-07-29T16:45:54.725Z,99.50
2022-07-29T16:49:25.707Z,100.00
2022-07-29T16:53:24.405Z,100.00
2022-07-29T16:56:57.332Z,100.00
2022-07-29T17:00:27.177Z,100.00
2022-07-29T17:04:35.448Z,100.00
2022-07-29T17:18:29.333Z,100.00
2022-07-29T17:22:06.357Z,100.00
2022-07-29T17:25:39.896Z,100.00
2022-07-29T17:28:56.493Z,100.00
2022-07-29T17:32:29.323Z,100.00
2022-07-29T17:36:12.091Z,100.00
2022-07-29T17:39:38.355Z,100.00
2022-07-29T17:43:09.678Z,100.00
2022-07-29T17:46:31.939Z,100.00
2022-07-29T17:50:01.679Z,100.00
2022-07-29T17:53:32.865Z,100.00
2022-07-29T17:57:22.969Z,100.00
2022-07-29T18:00:46.319Z,100.00
2022-07-29T18:04:32.773Z,100.00
2022-07-29T18:07:49.681Z,100.00
2022-07-29T18:11:07.730Z,100.00
2022-07-29T18:14:24.289Z,100.00
2022-07-29T18:17:52.794Z,100.00
2022-07-29T18:20:59.451Z,100.00
2022-07-29T18:24:17.313Z,100.00
2022-07-29T18:27:36.280Z,100.00
2022-07-29T18:30:53.514Z,100.00
2022-07-29T18:34:09.920Z,100.00
2022-07-29T18:38:01.193Z,100.00
2022-07-29T18:40:48.832Z,100.00
2022-07-29T18:44:05.699Z,100.00
2022-07-29T18:47:22.530Z,100.00
2022-07-29T18:50:42.609Z,100.00
2022-07-29T18:54:00.317Z,100.00
2022-07-29T18:57:54.524Z,100.00
2022-07-29T19:00:36.377Z,100.00
2022-07-29T19:03:52.666Z,100.00
2022-07-29T19:07:09.061Z,100.00
2022-07-29T19:10:25.911Z,100.00
2022-07-29T19:13:45.609Z,100.00
2022-07-29T19:17:01.974Z,100.00
2022-07-29T19:20:21.093Z,100.00
2022-07-29T19:24:05.964Z,100.00
2022-07-29T19:27:00.429Z,100.00
2022-07-29T19:30:21.762Z,100.00
2022-07-29T19:33:40.722Z,100.00
2022-07-29T19:37:00.736Z,100.00
2022-07-29T19:40:19.387Z,100.00
2022-07-29T19:43:51.084Z,100.00
2022-07-29T19:46:54.554Z,100.00
2022-07-29T19:50:12.032Z,100.00
2022-07-29T19:53:28.285Z,100.00
2022-07-29T19:56:45.771Z,100.00
2022-07-29T20:00:05.381Z,100.00
2022-07-29T20:03:23.389Z,100.00
2022-07-29T20:06:40.156Z,100.00
2022-07-29T20:09:57.768Z,100.00
2022-07-29T20:13:14.601Z,100.00
2022-07-29T20:16:30.822Z,100.00
2022-07-29T20:19:48.467Z,100.00
2022-07-29T20:23:04.998Z,100.00
2022-07-29T20:26:21.298Z,100.00
2022-07-29T20:29:37.508Z,100.00
2022-07-29T20:32:56.908Z,100.00
2022-07-29T20:36:13.824Z,100.00
2022-07-29T20:39:31.218Z,100.00
2022-07-29T20:42:47.490Z,100.00
2022-07-29T20:46:03.651Z,100.00
2022-07-29T20:49:22.192Z,100.00
2022-07-29T20:52:40.272Z,100.00
2022-07-29T20:55:56.770Z,100.00
2022-07-29T20:59:14.720Z,100.00
2022-07-29T21:02:30.918Z,100.00
2022-07-29T21:05:48.885Z,100.00
2022-07-29T21:09:06.499Z,100.00
2022-07-29T21:12:23.510Z,100.00
2022-07-29T21:15:40.127Z,100.00
2022-07-29T21:18:57.707Z,100.00
2022-07-29T21:22:15.089Z,100.00
2022-07-29T21:25:32.633Z,100.00
2022-07-29T21:28:50.160Z,100.00
2022-07-29T21:32:06.824Z,100.00
2022-07-29T21:36:06.311Z,100.00
2022-07-29T21:38:42.676Z,100.00
2022-07-29T21:41:59.035Z,100.00
2022-07-29T21:45:16.861Z,100.00
2022-07-29T21:48:34.690Z,100.00
2022-07-29T21:51:50.813Z,100.00
2022-07-29T21:55:07.200Z,100.00
2022-07-29T21:58:25.651Z,100.00
2022-07-29T22:01:41.678Z,100.00
2022-07-29T22:04:57.982Z,100.00
2022-07-29T22:08:15.071Z,100.00
2022-07-29T22:11:31.278Z,100.00
2022-07-29T22:14:47.589Z,100.00
2022-07-29T22:18:03.981Z,100.00
2022-07-29T22:21:20.411Z,100.00
2022-07-29T22:24:36.631Z,100.00
2022-07-29T22:27:53.074Z,100.00
2022-07-29T22:31:09.351Z,100.00
2022-07-29T22:34:25.965Z,100.00
2022-07-29T22:37:44.468Z,100.00
2022-07-29T22:41:01.657Z,100.00
2022-07-29T22:44:18.925Z,100.00
2022-07-29T22:47:45.727Z,100.00
2022-07-29T22:50:53.282Z,100.00
2022-07-29T22:54:12.032Z,100.00
2022-07-29T22:57:28.496Z,100.00
2022-07-29T23:00:44.849Z,100.00
2022-07-29T23:04:03.346Z,100.00
2022-07-29T23:07:20.304Z,100.00
2022-07-29T23:10:36.914Z,100.00
2022-07-29T23:13:53.220Z,100.00
2022-07-29T23:17:09.390Z,100.00
2022-07-29T23:20:25.685Z,100.00
2022-07-29T23:23:42.023Z,100.00
2022-07-29T23:26:58.384Z,100.00
2022-07-29T23:30:18.260Z,100.00
2022-07-29T23:33:34.451Z,100.00
2022-07-29T23:36:50.766Z,100.00
2022-07-29T23:40:10.856Z,100.00
2022-07-29T23:43:24.962Z,100.00
2022-07-29T23:46:41.358Z,100.00
2022-07-29T23:49:57.744Z,100.00
2022-07-29T23:53:13.920Z,100.00
2022-07-29T23:56:30.388Z,100.00
2022-07-29T23:59:46.441Z,100.00
